createdAt,value
2022-08-18T00:00:51.466Z,8.47
2022-08-18T00:03:59.094Z,8.37
2022-08-18T00:07:13.800Z,8.18
2022-08-18T00:10:17.942Z,8.40
2022-08-18T00:13:20.629Z,8.25
2022-08-18T00:16:22.497Z,8.20
2022-08-18T00:19:46.094Z,7.73
2022-08-18T00:22:47.629Z,7.70
2022-08-18T00:25:49.979Z,7.05
2022-08-18T00:28:51.716Z,7.70
2022-08-18T00:31:53.889Z,7.60
2022-08-18T00:34:56.236Z,6.93
2022-08-18T00:38:00.362Z,7.03
2022-08-18T00:41:02.249Z,7.63
2022-08-18T00:44:04.669Z,7.50
2022-08-18T00:47:06.451Z,7.10
2022-08-18T00:50:09.472Z,7.60
2022-08-18T00:53:24.803Z,8.00
2022-08-18T00:56:31.436Z,7.72
2022-08-18T00:59:57.305Z,7.30
2022-08-18T01:03:05.229Z,8.23
2022-08-18T01:06:21.293Z,7.97
2022-08-18T01:09:23.481Z,8.70
2022-08-18T01:12:46.454Z,7.88
2022-08-18T01:15:48.276Z,7.93
2022-08-18T01:19:08.722Z,7.93
2022-08-18T01:22:18.405Z,7.63
2022-08-18T01:25:40.508Z,7.88
2022-08-18T01:28:45.099Z,8.25
2022-08-18T01:31:56.871Z,8.68
2022-08-18T01:34:59.470Z,7.87
2022-08-18T01:38:01.136Z,8.13
2022-08-18T01:41:26.572Z,7.95
2022-08-18T01:44:25.046Z,7.40
2022-08-18T01:47:28.753Z,7.72
2022-08-18T01:50:36.244Z,7.30
2022-08-18T01:53:38.064Z,7.47
2022-08-18T01:56:42.457Z,7.45
2022-08-18T01:59:46.608Z,8.18
2022-08-18T02:02:58.159Z,7.90
2022-08-18T02:06:09.926Z,8.20
2022-08-18T02:09:11.621Z,8.13
2022-08-18T02:12:14.088Z,8.70
2022-08-18T02:15:15.726Z,7.82
2022-08-18T02:18:30.407Z,9.02
2022-08-18T02:21:42.189Z,7.93
2022-08-18T02:24:44.564Z,8.50
2022-08-18T02:27:46.691Z,8.30
2022-08-18T02:30:48.319Z,8.20
2022-08-18T02:33:51.666Z,8.55
2022-08-18T02:36:54.302Z,8.33
2022-08-18T02:39:56.199Z,8.50
2022-08-18T02:42:57.886Z,8.63
2022-08-18T02:45:59.618Z,8.82
2022-08-18T02:49:01.563Z,8.90
2022-08-18T02:52:03.902Z,8.80
2022-08-18T02:55:06.106Z,8.63
2022-08-18T02:58:08.104Z,8.65
2022-08-18T03:01:10.778Z,8.52
2022-08-18T03:04:16.014Z,9.07
2022-08-18T03:07:17.971Z,8.80
2022-08-18T03:10:33.006Z,9.17
2022-08-18T03:13:35.700Z,9.18
2022-08-18T03:16:53.249Z,9.02
2022-08-18T03:19:56.895Z,9.00
2022-08-18T03:22:59.881Z,9.03
2022-08-18T03:26:12.343Z,8.73
2022-08-18T03:29:14.245Z,8.85
2022-08-18T03:32:15.903Z,9.07
2022-08-18T03:35:17.815Z,9.05
2022-08-18T03:38:19.432Z,8.63
2022-08-18T03:41:56.909Z,8.53
2022-08-18T03:44:47.036Z,8.43
2022-08-18T03:47:51.231Z,8.50
2022-08-18T03:50:52.918Z,8.52
2022-08-18T03:53:57.684Z,9.00
2022-08-18T03:57:00.361Z,8.65
2022-08-18T04:00:02.329Z,8.48
2022-08-18T04:03:11.272Z,8.48
2022-08-18T04:06:29.901Z,8.90
2022-08-18T04:09:34.322Z,9.10
2022-08-18T04:12:38.586Z,9.03
2022-08-18T04:15:40.178Z,9.05
2022-08-18T04:18:41.950Z,8.75
2022-08-18T04:21:44.799Z,9.32
2022-08-18T04:24:47.156Z,9.40
2022-08-18T04:27:51.436Z,9.35
2022-08-18T04:30:54.064Z,9.85
2022-08-18T04:33:58.176Z,9.23
2022-08-18T04:37:02.280Z,9.43
2022-08-18T04:40:05.957Z,9.70
2022-08-18T04:43:15.065Z,9.70
2022-08-18T04:46:16.672Z,9.40
2022-08-18T04:49:22.420Z,9.40
2022-08-18T04:52:42.962Z,9.05
2022-08-18T04:55:52.305Z,8.80
2022-08-18T04:59:00.770Z,8.53
2022-08-18T05:02:10.264Z,9.30
2022-08-18T05:05:14.714Z,8.98
2022-08-18T05:08:16.360Z,8.65
2022-08-18T05:11:18.044Z,9.37
2022-08-18T05:14:20.223Z,8.57
2022-08-18T05:17:21.858Z,9.30
2022-08-18T05:20:25.864Z,8.73
2022-08-18T05:23:29.535Z,9.23
2022-08-18T05:26:32.121Z,8.70
2022-08-18T05:29:41.779Z,9.10
2022-08-18T05:32:49.971Z,9.20
2022-08-18T05:36:03.498Z,9.13
2022-08-18T05:39:19.096Z,9.25
2022-08-18T05:42:23.042Z,8.67
2022-08-18T05:45:25.199Z,8.77
2022-08-18T05:48:26.884Z,8.68
2022-08-18T05:51:34.645Z,8.35
2022-08-18T05:55:04.364Z,8.27
2022-08-18T05:58:12.761Z,8.53
2022-08-18T06:01:33.454Z,8.60
2022-08-18T06:04:41.428Z,8.30
2022-08-18T06:08:17.330Z,9.70
2022-08-18T06:11:22.857Z,9.00
2022-08-18T06:14:25.277Z,9.07
2022-08-18T06:17:54.600Z,9.10
2022-08-18T06:21:05.468Z,8.55
2022-08-18T06:24:37.095Z,8.52
2022-08-18T06:28:09.241Z,8.68
2022-08-18T06:31:27.468Z,8.63
2022-08-18T06:34:58.982Z,8.33
2022-08-18T06:38:26.925Z,8.90
2022-08-18T06:41:49.764Z,8.30
2022-08-18T06:45:15.206Z,8.52
2022-08-18T06:48:23.199Z,8.30
2022-08-18T06:51:28.283Z,8.40
2022-08-18T06:54:30.833Z,8.30
2022-08-18T06:57:38.601Z,8.10
2022-08-18T07:00:55.217Z,7.70
2022-08-18T07:03:58.313Z,7.60
2022-08-18T07:07:17.552Z,7.80
2022-08-18T07:10:19.470Z,7.82
2022-08-18T07:13:26.538Z,7.90
2022-08-18T07:16:57.035Z,7.97
2022-08-18T07:19:58.084Z,8.40
2022-08-18T07:23:07.915Z,8.40
2022-08-18T07:26:16.438Z,8.13
2022-08-18T07:29:18.419Z,8.82
2022-08-18T07:32:25.782Z,9.10
2022-08-18T07:35:45.825Z,9.30
2022-08-18T07:39:15.555Z,9.70
2022-08-18T07:42:53.524Z,9.57
2022-08-18T07:46:11.759Z,9.10
2022-08-18T07:49:28.673Z,9.38
2022-08-18T07:52:44.493Z,9.33
2022-08-18T07:55:58.594Z,9.00
2022-08-18T07:59:19.844Z,9.50
2022-08-18T08:03:10.067Z,8.73
2022-08-18T08:06:27.125Z,8.70
2022-08-18T08:09:53.402Z,9.50
2022-08-18T08:13:54.112Z,9.60
2022-08-18T08:17:13.239Z,9.75
2022-08-18T08:20:37.823Z,10.02
2022-08-18T08:24:08.294Z,9.75
2022-08-18T08:27:35.445Z,10.20
2022-08-18T08:30:48.850Z,10.07
2022-08-18T08:34:02.851Z,10.07
2022-08-18T08:37:12.616Z,10.13
2022-08-18T08:40:27.454Z,10.07
2022-08-18T08:43:42.614Z,10.37
2022-08-18T08:47:07.891Z,10.70
2022-08-18T08:50:14.949Z,10.45
2022-08-18T08:53:39.961Z,11.25
2022-08-18T08:56:46.479Z,10.70
2022-08-18T08:59:49.850Z,10.90
2022-08-18T09:03:36.414Z,11.17
2022-08-18T09:06:52.947Z,10.30
2022-08-18T09:10:25.287Z,10.05
2022-08-18T09:13:35.509Z,10.00
2022-08-18T09:16:59.467Z,9.60
2022-08-18T09:20:32.804Z,9.43
2022-08-18T09:23:45.792Z,9.57
2022-08-18T09:27:13.514Z,9.75
2022-08-18T09:30:36.981Z,9.60
2022-08-18T09:33:40.538Z,10.00
2022-08-18T09:36:58.034Z,9.60
2022-08-18T09:47:31.830Z,8.70
2022-08-18T09:50:52.000Z,8.80
2022-08-18T09:54:07.927Z,8.20
2022-08-18T09:57:09.522Z,8.70
2022-08-18T10:00:15.062Z,9.00
2022-08-18T10:03:25.461Z,8.13
2022-08-18T10:06:27.804Z,9.60
2022-08-18T10:09:37.547Z,9.17
2022-08-18T10:13:00.730Z,8.98
2022-08-18T10:17:13.478Z,9.10
2022-08-18T10:20:27.115Z,8.85
2022-08-18T10:24:02.893Z,8.93
2022-08-18T10:27:46.426Z,9.30
2022-08-18T10:31:06.514Z,9.77
2022-08-18T10:34:16.748Z,9.85
2022-08-18T10:37:38.434Z,8.70
2022-08-18T10:40:43.707Z,8.83
2022-08-18T10:43:55.686Z,9.30
2022-08-18T10:47:02.099Z,9.48
2022-08-18T10:50:09.283Z,11.07
2022-08-18T10:53:39.361Z,11.13
2022-08-18T10:56:48.138Z,11.27
2022-08-18T11:00:04.208Z,11.83
2022-08-18T11:03:50.073Z,12.45
2022-08-18T11:06:47.521Z,12.30
2022-08-18T11:13:28.687Z,11.13
2022-08-18T11:17:08.305Z,11.97
2022-08-18T11:20:14.704Z,11.77
2022-08-18T11:23:19.684Z,11.52
2022-08-18T11:26:23.840Z,11.30
2022-08-18T11:29:40.391Z,10.00
2022-08-18T11:32:52.034Z,9.57
2022-08-18T11:35:58.249Z,10.27
2022-08-18T11:39:00.968Z,9.82
2022-08-18T11:42:03.651Z,9.82
2022-08-18T11:45:19.805Z,10.20
2022-08-18T11:48:37.651Z,9.40
2022-08-18T11:55:34.557Z,8.65
2022-08-18T11:59:05.714Z,11.02
2022-08-18T12:02:08.182Z,11.50
2022-08-18T12:05:10.537Z,10.57
2022-08-18T12:08:54.533Z,10.38
2022-08-18T12:12:14.193Z,10.45
2022-08-18T12:15:22.697Z,9.63
2022-08-18T12:18:29.789Z,10.70
2022-08-18T12:21:31.829Z,10.07
2022-08-18T12:24:36.853Z,9.63
2022-08-18T12:27:44.124Z,8.95
2022-08-18T12:30:46.138Z,9.40
2022-08-18T12:34:00.982Z,9.47
2022-08-18T12:37:05.013Z,8.43
2022-08-18T12:40:12.259Z,8.50
2022-08-18T12:43:14.026Z,8.50
2022-08-18T12:46:16.502Z,8.55
2022-08-18T12:49:23.745Z,8.33
2022-08-18T12:52:25.630Z,7.90
2022-08-18T12:55:31.337Z,8.45
2022-08-18T12:58:36.377Z,9.30
2022-08-18T13:01:39.829Z,9.07
2022-08-18T13:04:41.744Z,9.37
2022-08-18T13:07:45.444Z,9.07
2022-08-18T13:10:51.210Z,8.60
2022-08-18T13:13:56.039Z,8.48
2022-08-18T13:16:58.274Z,7.75
2022-08-18T13:20:01.321Z,8.57
2022-08-18T13:23:03.023Z,8.03
2022-08-18T13:26:21.988Z,8.93
2022-08-18T13:29:23.815Z,9.45
2022-08-18T13:32:26.089Z,9.27
2022-08-18T13:35:35.493Z,8.70
2022-08-18T13:38:46.242Z,8.33
2022-08-18T13:41:49.726Z,8.75
2022-08-18T13:44:54.906Z,8.70
2022-08-18T13:47:58.461Z,9.45
2022-08-18T13:51:03.831Z,9.37
2022-08-18T13:54:29.506Z,9.33
2022-08-18T13:57:31.792Z,9.38
2022-08-18T14:00:34.520Z,8.60
2022-08-18T14:03:46.952Z,8.98
2022-08-18T14:06:56.823Z,9.63
2022-08-18T14:10:04.353Z,8.67
2022-08-18T14:13:20.879Z,8.50
2022-08-18T14:16:27.734Z,8.00
2022-08-18T14:19:48.155Z,8.23
2022-08-18T14:23:10.878Z,8.60
2022-08-18T14:26:31.289Z,8.30
2022-08-18T14:29:46.248Z,7.93
2022-08-18T14:32:49.538Z,7.68
2022-08-18T14:36:05.917Z,7.97
2022-08-18T14:39:08.791Z,7.63
2022-08-18T14:42:14.446Z,7.90
2022-08-18T14:45:27.577Z,7.70
2022-08-18T14:48:36.945Z,7.88
2022-08-18T14:51:42.616Z,7.90
2022-08-18T14:54:46.275Z,7.80
2022-08-18T14:57:53.294Z,7.87
2022-08-18T15:00:58.222Z,8.02
2022-08-18T15:04:00.401Z,7.75
2022-08-18T15:07:23.818Z,8.48
2022-08-18T15:10:28.062Z,8.53
2022-08-18T15:13:30.361Z,8.37
2022-08-18T15:16:38.418Z,8.30
2022-08-18T15:20:00.280Z,8.30
2022-08-18T15:23:28.081Z,8.45
2022-08-18T15:26:31.015Z,8.50
2022-08-18T15:29:33.449Z,8.87
2022-08-18T15:32:35.162Z,8.50
2022-08-18T15:35:39.016Z,8.50
2022-08-18T15:38:44.349Z,8.90
2022-08-18T15:44:56.692Z,8.47
2022-08-18T15:47:59.482Z,9.00
2022-08-18T15:51:11.505Z,8.75
2022-08-18T15:54:13.602Z,9.27
2022-08-18T15:57:38.901Z,8.90
2022-08-18T16:00:45.586Z,7.90
2022-08-18T16:03:48.868Z,9.18
2022-08-18T16:06:52.699Z,8.45
2022-08-18T16:09:54.637Z,8.68
2022-08-18T16:12:56.999Z,9.43
2022-08-18T16:15:58.775Z,8.57
2022-08-18T16:19:01.887Z,9.23
2022-08-18T16:22:07.365Z,8.73
2022-08-18T16:25:09.571Z,8.63
2022-08-18T16:28:13.387Z,9.40
2022-08-18T16:31:16.435Z,9.57
2022-08-18T16:34:18.070Z,9.52
2022-08-18T16:37:19.799Z,9.35
2022-08-18T16:40:21.718Z,10.02
2022-08-18T16:43:23.649Z,10.10
2022-08-18T16:46:27.757Z,10.43
2022-08-18T16:49:29.459Z,10.15
2022-08-18T16:52:33.635Z,10.48
2022-08-18T16:55:35.438Z,9.98
2022-08-18T16:58:55.677Z,10.20
2022-08-18T17:02:16.211Z,10.67
2022-08-18T17:05:17.949Z,10.60
2022-08-18T17:08:19.887Z,10.48
2022-08-18T17:11:23.871Z,10.27
2022-08-18T17:14:29.362Z,10.90
2022-08-18T17:17:31.738Z,10.60
2022-08-18T17:20:35.883Z,10.95
2022-08-18T17:23:39.006Z,10.50
2022-08-18T17:27:26.105Z,11.05
2022-08-18T17:30:33.101Z,11.47
2022-08-18T17:33:37.564Z,11.37
2022-08-18T17:36:52.548Z,11.07
2022-08-18T17:40:00.600Z,10.88
2022-08-18T17:43:02.342Z,10.93
2022-08-18T17:46:17.642Z,10.97
2022-08-18T17:49:48.424Z,11.27
2022-08-18T17:53:05.660Z,11.57
2022-08-18T17:56:12.195Z,11.70
2022-08-18T17:59:45.905Z,12.07
2022-08-18T18:02:52.027Z,12.10
2022-08-18T18:06:11.694Z,12.20
2022-08-18T18:09:30.826Z,12.68
2022-08-18T18:12:34.855Z,13.20
2022-08-18T18:15:40.050Z,13.77
2022-08-18T18:18:45.063Z,13.63
2022-08-18T18:22:02.347Z,14.23
2022-08-18T18:25:06.638Z,13.43
2022-08-18T18:28:24.814Z,13.10
2022-08-18T18:31:29.950Z,13.82
2022-08-18T18:34:40.866Z,13.17
2022-08-18T18:38:01.743Z,14.07
2022-08-18T18:41:12.569Z,14.38
2022-08-18T18:44:16.125Z,14.27
2022-08-18T18:47:27.840Z,14.63
2022-08-18T18:50:53.068Z,13.70
2022-08-18T18:54:09.637Z,13.87
2022-08-18T18:57:21.109Z,14.57
2022-08-18T19:00:36.962Z,14.00
2022-08-18T19:03:53.206Z,13.43
2022-08-18T19:07:03.658Z,14.33
2022-08-18T19:10:28.618Z,14.13
2022-08-18T19:13:35.695Z,14.50
2022-08-18T19:16:51.558Z,14.30
2022-08-18T19:20:16.788Z,14.07
2022-08-18T19:23:49.042Z,13.97
2022-08-18T19:26:55.851Z,14.67
2022-08-18T19:30:03.086Z,14.32
2022-08-18T19:33:06.543Z,14.07
2022-08-18T19:36:50.465Z,15.50
2022-08-18T19:40:09.362Z,14.43
2022-08-18T19:43:36.610Z,14.83
2022-08-18T19:46:44.912Z,14.98
2022-08-18T19:49:58.876Z,15.85
2022-08-18T19:53:33.016Z,15.77
2022-08-18T19:56:48.990Z,15.27
2022-08-18T20:00:11.691Z,15.63
2022-08-18T20:03:42.972Z,15.73
2022-08-18T20:07:21.438Z,15.32
2022-08-18T20:10:34.678Z,15.57
2022-08-18T20:13:43.069Z,16.17
2022-08-18T20:17:10.299Z,16.27
2022-08-18T20:20:15.546Z,16.77
2022-08-18T20:23:59.046Z,16.65
2022-08-18T20:27:21.622Z,17.25
2022-08-18T20:30:52.441Z,17.23
2022-08-18T20:34:14.156Z,17.80
2022-08-18T20:37:28.569Z,16.80
2022-08-18T20:40:47.458Z,17.50
2022-08-18T20:44:01.614Z,17.90
2022-08-18T20:47:27.412Z,17.43
2022-08-18T20:50:41.756Z,16.70
2022-08-18T20:54:01.678Z,16.70
2022-08-18T20:57:09.272Z,15.82
2022-08-18T21:00:27.060Z,15.48
2022-08-18T21:03:39.230Z,15.87
2022-08-18T21:06:44.503Z,16.05
2022-08-18T21:10:22.802Z,14.73
2022-08-18T21:13:31.282Z,14.35
2022-08-18T21:16:40.110Z,14.10
2022-08-18T21:19:43.386Z,13.40
2022-08-18T21:22:45.540Z,12.90
2022-08-18T21:25:57.917Z,13.20
2022-08-18T21:29:13.973Z,12.52
2022-08-18T21:32:31.484Z,12.90
2022-08-18T21:35:38.095Z,12.47
2022-08-18T21:39:05.429Z,11.20
2022-08-18T21:42:16.535Z,11.07
2022-08-18T21:45:23.356Z,10.43
2022-08-18T21:48:25.797Z,9.93
2022-08-18T21:51:32.675Z,9.20
2022-08-18T21:54:34.927Z,8.40
2022-08-18T21:58:02.756Z,8.07
2022-08-18T22:01:10.195Z,7.60
2022-08-18T22:04:35.314Z,7.70
2022-08-18T22:07:37.154Z,7.40
2022-08-18T22:11:02.320Z,7.10
2022-08-18T22:14:12.841Z,7.28
2022-08-18T22:17:40.248Z,7.25
2022-08-18T22:20:48.179Z,7.38
2022-08-18T22:24:11.239Z,7.33
2022-08-18T22:27:20.669Z,6.77
2022-08-18T22:30:23.294Z,6.40
2022-08-18T22:33:25.585Z,5.95
2022-08-18T22:36:34.822Z,5.53
2022-08-18T22:39:36.449Z,4.87
2022-08-18T22:42:39.156Z,4.57
2022-08-18T22:45:40.789Z,4.55
2022-08-18T22:48:42.424Z,4.63
2022-08-18T22:51:44.641Z,4.20
2022-08-18T22:54:46.642Z,4.40
2022-08-18T22:57:55.625Z,4.50
2022-08-18T23:01:05.132Z,4.20
2022-08-18T23:04:07.754Z,4.10
2022-08-18T23:07:09.917Z,4.38
2022-08-18T23:10:13.678Z,4.17
2022-08-18T23:13:16.784Z,4.50
2022-08-18T23:16:31.431Z,4.10
2022-08-18T23:19:34.492Z,4.15
2022-08-18T23:22:38.261Z,4.30
2022-08-18T23:25:40.026Z,4.30
2022-08-18T23:28:46.408Z,3.93
2022-08-18T23:31:49.367Z,4.38
2022-08-18T23:34:51.202Z,4.45
2022-08-18T23:37:53.230Z,4.22
2022-08-18T23:40:57.241Z,4.40
2022-08-18T23:44:00.099Z,4.00
2022-08-18T23:47:01.804Z,4.50
2022-08-18T23:50:05.145Z,4.05
2022-08-18T23:53:08.100Z,4.00
2022-08-18T23:56:09.945Z,3.90
2022-08-18T23:59:12.374Z,3.70
